Terminal Aerodrome Forecast
Issued by NWS

Home | Current Version | Previous Version | Text Only | Print | Product List | Glossary On
Versions: 1 2 3 4 5 6 7 8 9 10 11 12 13 14 15
000
FTUS43 KGRR 232340
TAFAZO
TAF
KAZO 232340Z 2400/2424 14005KT P6SM BKN150
     FM240400 19005KT P6SM VCTS BKN060CB
     FM241100 18010KT P6SM -RA OVC040
     FM241400 21008KT P6SM VCSH BKN100=

USA.gov is the U.S. government's official web portal to all federal, state and local government web resources and services.